Cathlamet — WYR7641 — position and weather

sailwx.info

Track history (hours):
 
Tides and Currents Weather Stations Pressure Air Temp Water Temp Dewpoint Dewpoint Depression Visibility Wind Speed Wind Dir Waves Ship Positions

Cathlamet

Owner: WASHINGTON, STATE OF; Dept. of Transportation, OLYMPIA, WA. More information available from US FCC via Universal Licensing System and Coast Guard Vessel Documentation Center.

Last reported at 2015-Jul-05 07:33 UTC. Time now 2015-Jul-05 07:49 UTC.
Position N 47°31' W 122°28'.

Length 100 m.

Type: Passenger vessel. MMSI: 366773070.

Date/timePositionNaut miles runAvg speedWind from/ knotsBaromVisibWave heightAir tempDewpointWater temp
2015-Jul-05 07:33N 47°31' W 122°28'2 2.3
2015-Jul-05 06:34N 47°31' W 122°25'0 0.2
2015-Jul-05 05:34N 47°31' W 122°24'1 0.9
2015-Jul-05 04:34N 47°31' W 122°26'1 1.2
2015-Jul-05 03:33N 47°31' W 122°24'4 3.6
2015-Jul-05 02:34N 47°31' W 122°29'1 1.3
2015-Jul-05 01:33N 47°31' W 122°27'0 0.4
2015-Jul-05 00:33N 47°31' W 122°28'1 1.0
2015-Jul-04 23:33N 47°31' W 122°26'0 0.1
2015-Jul-04 22:33N 47°31' W 122°26'2 2.4
2015-Jul-04 21:33N 47°31' W 122°30'4 3.9
2015-Jul-04 20:34N 47°31' W 122°24'1 1.0
2015-Jul-04 19:34N 47°31' W 122°25'2 1.6
2015-Jul-04 18:34N 47°31' W 122°28'1 1.2
2015-Jul-04 17:34N 47°31' W 122°29'4 3.7
2015-Jul-04 16:34N 47°31' W 122°24'0 0.1
2015-Jul-04 15:33N 47°31' W 122°24'3 2.8
2015-Jul-04 14:34N 47°31' W 122°28'0 0.0
2015-Jul-04 13:34N 47°31' W 122°28'0 0.0
2015-Jul-04 12:33N 47°31' W 122°28'0 0.0
2015-Jul-04 11:33N 47°31' W 122°28'0 0.0
2015-Jul-04 10:34N 47°31' W 122°28'0 0.0
2015-Jul-04 09:34N 47°31' W 122°28'0 0.0
2015-Jul-04 08:34N 47°31' W 122°28'0 0.0
2015-Jul-04 07:34N 47°31' W 122°28'0 0.0
2015-Jul-04 06:34N 47°31' W 122°28'0 0.0
2015-Jul-04 05:34N 47°31' W 122°28'0 0.1
2015-Jul-04 04:34N 47°31' W 122°28'0 0.5
2015-Jul-04 03:34N 47°31' W 122°28'3 2.5
2015-Jul-04 02:33N 47°32' W 122°25'3 3.5
2015-Jul-04 01:33N 47°31' W 122°30'4 4.0
2015-Jul-04 00:34N 47°31' W 122°24'0 0.4
2015-Jul-03 23:34N 47°31' W 122°24'0 0.4
2015-Jul-03 22:33N 47°31' W 122°24'2 2.3
2015-Jul-03 21:34N 47°31' W 122°27'1 1.5
2015-Jul-03 20:33N 47°31' W 122°25'3 3.2
2015-Jul-03 19:33N 47°31' W 122°30'4 4.0
2015-Jul-03 18:33N 47°31' W 122°24'0 0.0
2015-Jul-03 17:33N 47°31' W 122°24'3 2.8
2015-Jul-03 16:33N 47°31' W 122°28'0 0.1
2015-Jul-03 15:33N 47°31' W 122°28'2 2.5
2015-Jul-03 14:34N 47°31' W 122°24'0 0.1
2015-Jul-03 13:33N 47°31' W 122°24'3 2.6
2015-Jul-03 12:33N 47°31' W 122°28'0 0.0
2015-Jul-03 11:33N 47°31' W 122°28'1 1.1
2015-Jul-03 10:33N 47°31' W 122°29'1 1.1
2015-Jul-03 09:34N 47°31' W 122°28'1 1.3
2015-Jul-03 08:33N 47°31' W 122°30'0 0.3
2015-Jul-03 07:33N 47°31' W 122°29'3 2.5
2015-Jul-03 06:33N 47°31' W 122°26'1 0.7
2015-Jul-03 05:33N 47°31' W 122°25'0 0.2
2015-Jul-03 04:34N 47°31' W 122°25'2 2.1
2015-Jul-03 03:33N 47°31' W 122°28'3 2.7
2015-Jul-03 02:34N 47°31' W 122°24'4 3.8
2015-Jul-03 01:34N 47°31' W 122°30'4 3.9
2015-Jul-03 00:33N 47°31' W 122°24'0 0.1
2015-Jul-02 23:33N 47°31' W 122°24'0 0.0
2015-Jul-02 22:33N 47°31' W 122°24'3 3.1
2015-Jul-02 21:33N 47°31' W 122°28'2 1.9
2015-Jul-02 20:33N 47°31' W 122°26'3 2.8
2015-Jul-02 19:33N 47°31' W 122°30'4 4.0
2015-Jul-02 18:32N 47°31' W 122°24'1 0.6
2015-Jul-02 17:33N 47°31' W 122°25'2 2.2
2015-Jul-02 16:33N 47°31' W 122°28'0 0.2
2015-Jul-02 15:34N 47°31' W 122°28'2 2.4
2015-Jul-02 14:33N 47°31' W 122°24'0 0.1
2015-Jul-02 13:34N 47°31' W 122°24'3 2.6
2015-Jul-02 12:33N 47°31' W 122°28'0 0.0
2015-Jul-02 11:34N 47°31' W 122°28'1 1.2
2015-Jul-02 10:33N 47°31' W 122°30'1 1.2
2015-Jul-02 09:34N 47°31' W 122°28'1 1.3
2015-Jul-02 08:33N 47°31' W 122°30'2 2.0
2015-Jul-02 07:34N 47°31' W 122°27'2 2.0
2015-Jul-02 06:33N 47°31' W 122°24'3 2.6
2015-Jul-02 05:33N 47°31' W 122°28'0 0.2
2015-Jul-02 04:33N 47°31' W 122°28'0 0.1
2015-Jul-02 03:34N 47°31' W 122°28'2 2.5
2015-Jul-02 02:33N 47°31' W 122°24'4 3.6
2015-Jul-02 01:34N 47°31' W 122°30'4 4.0
2015-Jul-02 00:33N 47°31' W 122°24'0 0.0
2015-Jul-01 23:33N 47°31' W 122°24'0 0.0
2015-Jul-01 22:31N 47°31' W 122°24'3 3.5
2015-Jul-01 21:33N 47°31' W 122°29'1 1.3
2015-Jul-01 20:33N 47°31' W 122°27'2 2.0
2015-Jul-01 19:33N 47°31' W 122°30'4 4.1
2015-Jul-01 18:34N 47°31' W 122°24'0 0.0
2015-Jul-01 17:33N 47°31' W 122°24'3 2.8
2015-Jul-01 16:33N 47°31' W 122°28'0 0.0
2015-Jul-01 15:33N 47°31' W 122°28'3 2.6
2015-Jul-01 14:33N 47°31' W 122°24'0 0.2
2015-Jul-01 13:33N 47°31' W 122°24'3 2.8
2015-Jul-01 12:33N 47°31' W 122°28'0 0.0
2015-Jul-01 11:34N 47°31' W 122°28'1 1.2
2015-Jul-01 10:34N 47°31' W 122°30'1 1.2
2015-Jul-01 09:33N 47°31' W 122°28'1 1.2
2015-Jul-01 08:33N 47°31' W 122°30'2 1.8
2015-Jul-01 07:34N 47°31' W 122°27'2 2.2
2015-Jul-01 06:33N 47°31' W 122°24'3 2.8
2015-Jul-01 05:34N 47°31' W 122°28'0 0.0
2015-Jul-01 04:33N 47°31' W 122°28'0 0.2
2015-Jul-01 03:34N 47°31' W 122°28'3 2.7
2015-Jul-01 02:33N 47°31' W 122°24'3 3.7
2015-Jul-01 01:49N 47°31' W 122°28'1 4.9
2015-Jul-01 01:34N 47°31' W 122°30'1 3.6
2015-Jul-01 01:12N 47°31' W 122°28'3 4.3
2015-Jul-01 00:33N 47°31' W 122°24'1 4.7
2015-Jul-01 00:19N 47°31' W 122°25'1 1.5
2015-Jun-30 23:33N 47°31' W 122°24'0 3.8
2015-Jun-30 23:27N 47°31' W 122°24'0 0.4
2015-Jun-30 22:33N 47°31' W 122°24'1 2.3
2015-Jun-30 22:07N 47°32' W 122°25'3 5.0
2015-Jun-30 21:33N 47°31' W 122°29'012.1
2015-Jun-30 21:32N 47°31' W 122°29'1 1.2
2015-Jun-30 20:33N 47°31' W 122°28'213.2
2015-Jun-30 20:26N 47°31' W 122°25'3 3.1
2015-Jun-30 19:33N 47°31' W 122°29'1 2.3
2015-Jun-30 19:05N 47°31' W 122°28'3 5.3
2015-Jun-30 18:33N 47°31' W 122°24'2 6.6
2015-Jun-30 18:20N 47°31' W 122°26'1 1.6
2015-Jun-30 17:33N 47°31' W 122°24'115.7
2015-Jun-30 17:30N 47°31' W 122°26'2 1.7
2015-Jun-30 16:33N 47°31' W 122°28'1 4.6
2015-Jun-30 16:18N 47°31' W 122°26'1 1.5
2015-Jun-30 15:33N 47°31' W 122°28'0 0.7
2015-Jun-30 15:33N 47°31' W 122°28'3 2.6
2015-Jun-30 14:33N 47°31' W 122°24'0 9.7
2015-Jun-30 14:32N 47°31' W 122°24'0 0.4
2015-Jun-30 13:33N 47°31' W 122°24'0 9.3
2015-Jun-30 13:31N 47°31' W 122°24'2 2.5
2015-Jun-30 12:33N 47°31' W 122°28'0 0.0
2015-Jun-30 12:30N 47°31' W 122°28'0 0.0
2015-Jun-30 11:33N 47°31' W 122°28'0 4.8
2015-Jun-30 11:29N 47°31' W 122°28'1 1.4
2015-Jun-30 10:34N 47°31' W 122°30'0 1.6
2015-Jun-30 10:28N 47°31' W 122°30'1 1.4
2015-Jun-30 09:34N 47°31' W 122°28'0 1.0
2015-Jun-30 09:23N 47°31' W 122°28'1 1.5
2015-Jun-30 08:33N 47°31' W 122°30'1 7.3
2015-Jun-30 08:23N 47°31' W 122°28'0 0.1
2015-Jun-30 07:34N 47°31' W 122°28'0 7.0
2015-Jun-30 07:33N 47°31' W 122°28'3 2.8
2015-Jun-30 06:33N 47°31' W 122°24'0 0.9
2015-Jun-30 06:22N 47°31' W 122°24'411.4
2015-Jun-30 06:02N 47°31' W 122°30'2 4.1
2015-Jun-30 05:33N 47°31' W 122°27'1 0.6
2015-Jun-30 04:34N 47°31' W 122°28'0 0.3
2015-Jun-30 03:51N 47°31' W 122°27'1 2.0
2015-Jun-30 03:33N 47°31' W 122°28'011.0
2015-Jun-30 03:31N 47°31' W 122°29'3 3.2
2015-Jun-30 02:33N 47°31' W 122°24'2 3.3
2015-Jun-30 01:49N 47°31' W 122°28'1 5.3
2015-Jun-30 01:34N 47°31' W 122°30'1 3.2
2015-Jun-30 01:09N 47°31' W 122°28'3 4.7
2015-Jun-30 00:33N 47°31' W 122°24'0 1.7
2015-Jun-30 00:24N 47°31' W 122°24'0 0.3
2015-Jun-29 23:33N 47°31' W 122°24'1 5.6
2015-Jun-29 23:26N 47°31' W 122°25'1 0.8
2015-Jun-29 22:33N 47°31' W 122°24'1 1.9
2015-Jun-29 22:14N 47°32' W 122°25'2 3.6
2015-Jun-29 21:33N 47°31' W 122°28'216.8
2015-Jun-29 21:28N 47°31' W 122°26'0 0.4
2015-Jun-29 20:33N 47°31' W 122°26'015.8
2015-Jun-29 20:33N 47°31' W 122°26'1 1.3
2015-Jun-29 19:34N 47°31' W 122°28'0 4.6
2015-Jun-29 19:32N 47°31' W 122°28'3 2.5
2015-Jun-29 18:28N 47°31' W 122°24'0 2.1
2015-Jun-29 18:17N 47°31' W 122°24'0 0.5
2015-Jun-29 17:33N 47°31' W 122°24'2 9.1
2015-Jun-29 17:22N 47°31' W 122°26'1 1.4
2015-Jun-29 16:34N 47°31' W 122°28'0 2.9
2015-Jun-29 16:32N 47°31' W 122°28'0 0.1
2015-Jun-29 15:33N 47°31' W 122°28'0 0.3
2015-Jun-29 15:32N 47°31' W 122°28'2 2.6
2015-Jun-29 14:34N 47°31' W 122°24'013.5
2015-Jun-29 14:32N 47°31' W 122°25'1 0.6
2015-Jun-29 13:33N 47°31' W 122°24'0 5.1
2015-Jun-29 13:32N 47°31' W 122°24'3 2.8
2015-Jun-29 12:34N 47°31' W 122°28'0 0.0
2015-Jun-29 12:31N 47°31' W 122°28'0 0.0
2015-Jun-29 11:33N 47°31' W 122°28'0 1.1
2015-Jun-29 11:32N 47°31' W 122°28'1 1.3
2015-Jun-29 10:33N 47°31' W 122°30'0 2.9
2015-Jun-29 10:31N 47°31' W 122°30'1 1.3
2015-Jun-29 09:33N 47°31' W 122°28'0 0.0
2015-Jun-29 09:31N 47°31' W 122°28'1 1.3
2015-Jun-29 08:33N 47°31' W 122°30'110.9
2015-Jun-29 08:26N 47°31' W 122°28'0 0.5
2015-Jun-29 07:34N 47°31' W 122°27'2 2.3
2015-Jun-29 06:33N 47°31' W 122°24'3 2.8
2015-Jun-29 05:34N 47°31' W 122°28'3 2.8
2015-Jun-29 04:33N 47°31' W 122°24'3 2.8
2015-Jun-29 03:34N 47°31' W 122°28'3 2.8
2015-Jun-29 02:33N 47°31' W 122°24'0 0.0
2015-Jun-29 01:33N 47°31' W 122°24'0 0.0
2015-Jun-29 00:33N 47°31' W 122°24'3 2.8
2015-Jun-28 23:34N 47°31' W 122°28'0 0.0
2015-Jun-28 22:34N 47°31' W 122°28'3 2.7
2015-Jun-28 21:33N 47°31' W 122°24'3 2.6
2015-Jun-28 20:34N 47°31' W 122°28'0 0.3
2015-Jun-28 19:34N 47°31' W 122°28'3 2.9
2015-Jun-28 18:33N 47°31' W 122°24'3 2.8
2015-Jun-28 17:33N 47°31' W 122°28'0 0.0
2015-Jun-28 16:33N 47°31' W 122°28'2 2.4
2015-Jun-28 15:34N 47°31' W 122°25'4 3.6
2015-Jun-28 14:33N 47°31' W 122°30'4 4.1
2015-Jun-28 13:33N 47°31' W 122°24'3 2.7
2015-Jun-28 12:34N 47°31' W 122°28'0 0.2
2015-Jun-28 11:33N 47°31' W 122°28'1 1.3
2015-Jun-28 10:33N 47°31' W 122°30'1 1.3
2015-Jun-28 09:33N 47°31' W 122°28'1 1.3
2015-Jun-28 08:33N 47°31' W 122°30'2 2.0
2015-Jun-28 07:33N 47°31' W 122°27'2 2.1
2015-Jun-28 06:33N 47°31' W 122°24'1 1.3
2015-Jun-28 05:33N 47°31' W 122°26'1 1.7
2015-Jun-28 04:47N 47°31' W 122°28'0 0.6
2015-Jun-28 04:34N 47°31' W 122°28'010.3
2015-Jun-28 04:31N 47°31' W 122°27'1 1.1
2015-Jun-28 03:34N 47°31' W 122°29'1 2.3
2015-Jun-28 03:15N 47°31' W 122°30'4 5.4
2015-Jun-28 02:30N 47°31' W 122°24'1 3.3
2015-Jun-28 02:20N 47°31' W 122°25'1 0.7
2015-Jun-28 01:33N 47°31' W 122°24'0 5.7
2015-Jun-28 01:29N 47°31' W 122°24'0 0.2
2015-Jun-28 00:33N 47°31' W 122°24'115.7
2015-Jun-28 00:29N 47°31' W 122°26'1 1.3
2015-Jun-27 23:33N 47°31' W 122°28'0 2.0
2015-Jun-27 23:24N 47°31' W 122°28'0 0.4
2015-Jun-27 22:34N 47°31' W 122°28'0 0.0
2015-Jun-27 22:33N 47°31' W 122°28'1 1.2
2015-Jun-27 21:33N 47°31' W 122°26'0145.9
2015-Jun-27 21:33N 47°31' W 122°26'0 0.4
2015-Jun-27 20:33N 47°31' W 122°26'016.4
2015-Jun-27 20:33N 47°31' W 122°26'3 2.9
2015-Jun-27 19:33N 47°31' W 122°30'1 6.2
2015-Jun-27 19:21N 47°31' W 122°28'3 3.3
2015-Jun-27 18:34N 47°31' W 122°24'3 2.6
2015-Jun-27 17:33N 47°31' W 122°28'0 0.0
2015-Jun-27 16:34N 47°31' W 122°28'2 2.1
2015-Jun-27 15:33N 47°31' W 122°25'3 3.3
2015-Jun-27 14:33N 47°31' W 122°30'4 3.8
2015-Jun-27 13:33N 47°31' W 122°24'3 2.5
2015-Jun-27 12:34N 47°31' W 122°28'0 0.0
2015-Jun-27 11:33N 47°31' W 122°28'1 1.3
2015-Jun-27 10:34N 47°31' W 122°30'1 1.3
2015-Jun-27 09:33N 47°31' W 122°28'0 0.0
2015-Jun-27 08:33N 47°31' W 122°28'0 0.2
2015-Jun-27 07:34N 47°31' W 122°28'1 1.0
2015-Jun-27 06:33N 47°31' W 122°29'4 3.8
2015-Jun-27 05:33N 47°31' W 122°24'3 2.8
2015-Jun-27 04:34N 47°31' W 122°28'0 0.0
2015-Jun-27 03:33N 47°31' W 122°28'1 1.3
2015-Jun-27 02:33N 47°31' W 122°30'4 4.0
2015-Jun-27 01:34N 47°31' W 122°24'3 2.8
2015-Jun-27 00:33N 47°31' W 122°28'0 0.1
2015-Jun-26 23:34N 47°31' W 122°28'2 2.1
2015-Jun-26 22:35N 47°31' W 122°25'016.3
2015-Jun-26 22:33N 47°31' W 122°25'116.8
2015-Jun-26 22:30N 47°31' W 122°27'2 2.2
2015-Jun-26 21:34N 47°31' W 122°24'110.2
2015-Jun-26 21:29N 47°31' W 122°25'2 2.2
2015-Jun-26 20:34N 47°31' W 122°28'0 0.1
2015-Jun-26 20:29N 47°31' W 122°28'2 1.9
2015-Jun-26 19:33N 47°31' W 122°25'116.7
2015-Jun-26 19:29N 47°31' W 122°27'0 0.2
2015-Jun-26 18:34N 47°31' W 122°27'0 4.9
2015-Jun-26 18:28N 47°31' W 122°28'0 0.4
2015-Jun-26 17:33N 47°31' W 122°27'216.2
2015-Jun-26 17:28N 47°31' W 122°25'2 2.1
2015-Jun-26 16:33N 47°31' W 122°28'1 9.2
2015-Jun-26 16:27N 47°31' W 122°29'4 4.0
2015-Jun-26 15:33N 47°31' W 122°24'0 3.4
2015-Jun-26 15:26N 47°31' W 122°24'3 3.0
2015-Jun-26 14:33N 47°31' W 122°28'013.7
2015-Jun-26 14:32N 47°31' W 122°28'0 0.2
2015-Jun-26 13:33N 47°31' W 122°28'0 0.1
2015-Jun-26 13:31N 47°31' W 122°28'0 0.0
2015-Jun-26 12:33N 47°31' W 122°28'0 0.0
2015-Jun-26 12:24N 47°31' W 122°28'0 0.0
2015-Jun-26 11:33N 47°31' W 122°28'0 0.0
2015-Jun-26 11:33N 47°31' W 122°28'0 0.0
2015-Jun-26 10:33N 47°31' W 122°28'0 0.0
2015-Jun-26 10:26N 47°31' W 122°28'0 0.0
2015-Jun-26 09:33N 47°31' W 122°28'0 0.0
2015-Jun-26 09:31N 47°31' W 122°28'0 0.0
2015-Jun-26 08:33N 47°31' W 122°28'0 0.0
2015-Jun-26 08:31N 47°31' W 122°28'0 0.0
2015-Jun-26 07:33N 47°31' W 122°28'0 0.0
2015-Jun-26 07:30N 47°31' W 122°28'0 0.0
2015-Jun-26 06:33N 47°31' W 122°28'0 0.0
2015-Jun-26 06:03N 47°31' W 122°28'0 0.0
2015-Jun-26 05:33N 47°31' W 122°28'1 0.6
2015-Jun-26 04:33N 47°31' W 122°29'114.6
2015-Jun-26 04:31N 47°31' W 122°28'0 0.1
2015-Jun-26 03:34N 47°31' W 122°28'0 7.6
2015-Jun-26 03:31N 47°31' W 122°27'0 0.3
2015-Jun-26 02:34N 47°31' W 122°28'0 3.7
2015-Jun-26 02:31N 47°31' W 122°28'3 2.8
2015-Jun-26 01:33N 47°31' W 122°24'1 2.8
2015-Jun-26 01:14N 47°31' W 122°25'2 2.9
2015-Jun-26 00:33N 47°31' W 122°28'0 0.1
2015-Jun-26 00:29N 47°31' W 122°28'0 0.0
2015-Jun-25 23:33N 47°31' W 122°28'0 1.6
2015-Jun-25 23:18N 47°31' W 122°27'1 1.0
2015-Jun-25 22:33N 47°31' W 122°26'017.3
2015-Jun-25 22:32N 47°31' W 122°27'1 0.9
2015-Jun-25 21:33N 47°31' W 122°26'017.4
2015-Jun-25 21:32N 47°31' W 122°26'1 1.2
2015-Jun-25 20:34N 47°31' W 122°28'0 0.1
2015-Jun-25 20:30N 47°31' W 122°28'2 2.2
2015-Jun-25 19:34N 47°31' W 122°25'019.0
2015-Jun-25 19:33N 47°31' W 122°25'2 1.6
2015-Jun-25 18:33N 47°31' W 122°27'0 0.0
2015-Jun-25 18:33N 47°31' W 122°27'0 0.3
2015-Jun-25 17:34N 47°31' W 122°28'011.3
2015-Jun-25 17:33N 47°31' W 122°28'0 0.2
2015-Jun-25 16:34N 47°31' W 122°28'0 3.1
2015-Jun-25 16:33N 47°31' W 122°28'3 2.8
2015-Jun-25 15:33N 47°31' W 122°24'0 2.8
2015-Jun-25 15:28N 47°31' W 122°24'3 2.8
2015-Jun-25 14:34N 47°31' W 122°28'0 8.2
2015-Jun-25 14:32N 47°31' W 122°28'0 0.0
2015-Jun-25 13:33N 47°31' W 122°28'0 0.0
2015-Jun-25 13:31N 47°31' W 122°28'0 0.0
2015-Jun-25 12:33N 47°31' W 122°28'0 0.0
2015-Jun-25 12:30N 47°31' W 122°28'0 0.0
2015-Jun-25 11:33N 47°31' W 122°28'0 0.0
2015-Jun-25 11:30N 47°31' W 122°28'0 0.0
2015-Jun-25 10:33N 47°31' W 122°28'0 0.0
2015-Jun-25 10:30N 47°31' W 122°28'0 0.0
2015-Jun-25 09:33N 47°31' W 122°28'0 0.0
2015-Jun-25 09:29N 47°31' W 122°28'0 0.0
2015-Jun-25 08:33N 47°31' W 122°28'0 0.0
2015-Jun-25 08:29N 47°31' W 122°28'  
Track history (hours):
 
Tides and Currents Weather Stations Pressure Air Temp Water Temp Dewpoint Dewpoint Depression Visibility Wind Speed Wind Dir Waves Ship Positions

Cathlamet

Owner: WASHINGTON, STATE OF; Dept. of Transportation, OLYMPIA, WA. More information available from US FCC via Universal Licensing System and Coast Guard Vessel Documentation Center.

Last reported at 2015-Jul-05 07:33 UTC. Time now 2015-Jul-05 07:49 UTC.
Position N 47°31' W 122°28'.

Length 100 m.

Type: Passenger vessel. MMSI: 366773070.

Date/timePositionNaut miles runAvg speedWind from/ knotsBaromVisibWave heightAir tempDewpointWater temp
2015-Jul-05 07:33N 47°31' W 122°28'2 2.3
2015-Jul-05 06:34N 47°31' W 122°25'0 0.2
2015-Jul-05 05:34N 47°31' W 122°24'1 0.9
2015-Jul-05 04:34N 47°31' W 122°26'1 1.2
2015-Jul-05 03:33N 47°31' W 122°24'4 3.6
2015-Jul-05 02:34N 47°31' W 122°29'1 1.3
2015-Jul-05 01:33N 47°31' W 122°27'0 0.4
2015-Jul-05 00:33N 47°31' W 122°28'1 1.0
2015-Jul-04 23:33N 47°31' W 122°26'0 0.1
2015-Jul-04 22:33N 47°31' W 122°26'2 2.4
2015-Jul-04 21:33N 47°31' W 122°30'4 3.9
2015-Jul-04 20:34N 47°31' W 122°24'1 1.0
2015-Jul-04 19:34N 47°31' W 122°25'2 1.6
2015-Jul-04 18:34N 47°31' W 122°28'1 1.2
2015-Jul-04 17:34N 47°31' W 122°29'4 3.7
2015-Jul-04 16:34N 47°31' W 122°24'0 0.1
2015-Jul-04 15:33N 47°31' W 122°24'3 2.8
2015-Jul-04 14:34N 47°31' W 122°28'0 0.0
2015-Jul-04 13:34N 47°31' W 122°28'0 0.0
2015-Jul-04 12:33N 47°31' W 122°28'0 0.0
2015-Jul-04 11:33N 47°31' W 122°28'0 0.0
2015-Jul-04 10:34N 47°31' W 122°28'0 0.0
2015-Jul-04 09:34N 47°31' W 122°28'0 0.0
2015-Jul-04 08:34N 47°31' W 122°28'0 0.0
2015-Jul-04 07:34N 47°31' W 122°28'0 0.0
2015-Jul-04 06:34N 47°31' W 122°28'0 0.0
2015-Jul-04 05:34N 47°31' W 122°28'0 0.1
2015-Jul-04 04:34N 47°31' W 122°28'0 0.5
2015-Jul-04 03:34N 47°31' W 122°28'3 2.5
2015-Jul-04 02:33N 47°32' W 122°25'3 3.5
2015-Jul-04 01:33N 47°31' W 122°30'4 4.0
2015-Jul-04 00:34N 47°31' W 122°24'0 0.4
2015-Jul-03 23:34N 47°31' W 122°24'0 0.4
2015-Jul-03 22:33N 47°31' W 122°24'2 2.3
2015-Jul-03 21:34N 47°31' W 122°27'1 1.5
2015-Jul-03 20:33N 47°31' W 122°25'3 3.2
2015-Jul-03 19:33N 47°31' W 122°30'4 4.0
2015-Jul-03 18:33N 47°31' W 122°24'0 0.0
2015-Jul-03 17:33N 47°31' W 122°24'3 2.8
2015-Jul-03 16:33N 47°31' W 122°28'0 0.1
2015-Jul-03 15:33N 47°31' W 122°28'2 2.5
2015-Jul-03 14:34N 47°31' W 122°24'0 0.1
2015-Jul-03 13:33N 47°31' W 122°24'3 2.6
2015-Jul-03 12:33N 47°31' W 122°28'0 0.0
2015-Jul-03 11:33N 47°31' W 122°28'1 1.1
2015-Jul-03 10:33N 47°31' W 122°29'1 1.1
2015-Jul-03 09:34N 47°31' W 122°28'1 1.3
2015-Jul-03 08:33N 47°31' W 122°30'0 0.3
2015-Jul-03 07:33N 47°31' W 122°29'3 2.5
2015-Jul-03 06:33N 47°31' W 122°26'1 0.7
2015-Jul-03 05:33N 47°31' W 122°25'0 0.2
2015-Jul-03 04:34N 47°31' W 122°25'2 2.1
2015-Jul-03 03:33N 47°31' W 122°28'3 2.7
2015-Jul-03 02:34N 47°31' W 122°24'4 3.8
2015-Jul-03 01:34N 47°31' W 122°30'4 3.9
2015-Jul-03 00:33N 47°31' W 122°24'0 0.1
2015-Jul-02 23:33N 47°31' W 122°24'0 0.0
2015-Jul-02 22:33N 47°31' W 122°24'3 3.1
2015-Jul-02 21:33N 47°31' W 122°28'2 1.9
2015-Jul-02 20:33N 47°31' W 122°26'3 2.8
2015-Jul-02 19:33N 47°31' W 122°30'4 4.0
2015-Jul-02 18:32N 47°31' W 122°24'1 0.6
2015-Jul-02 17:33N 47°31' W 122°25'2 2.2
2015-Jul-02 16:33N 47°31' W 122°28'0 0.2
2015-Jul-02 15:34N 47°31' W 122°28'2 2.4
2015-Jul-02 14:33N 47°31' W 122°24'0 0.1
2015-Jul-02 13:34N 47°31' W 122°24'3 2.6
2015-Jul-02 12:33N 47°31' W 122°28'0 0.0
2015-Jul-02 11:34N 47°31' W 122°28'1 1.2
2015-Jul-02 10:33N 47°31' W 122°30'1 1.2
2015-Jul-02 09:34N 47°31' W 122°28'1 1.3
2015-Jul-02 08:33N 47°31' W 122°30'2 2.0
2015-Jul-02 07:34N 47°31' W 122°27'2 2.0
2015-Jul-02 06:33N 47°31' W 122°24'3 2.6
2015-Jul-02 05:33N 47°31' W 122°28'0 0.2
2015-Jul-02 04:33N 47°31' W 122°28'0 0.1
2015-Jul-02 03:34N 47°31' W 122°28'2 2.5
2015-Jul-02 02:33N 47°31' W 122°24'4 3.6
2015-Jul-02 01:34N 47°31' W 122°30'4 4.0
2015-Jul-02 00:33N 47°31' W 122°24'0 0.0
2015-Jul-01 23:33N 47°31' W 122°24'0 0.0
2015-Jul-01 22:31N 47°31' W 122°24'3 3.5
2015-Jul-01 21:33N 47°31' W 122°29'1 1.3
2015-Jul-01 20:33N 47°31' W 122°27'2 2.0
2015-Jul-01 19:33N 47°31' W 122°30'4 4.1
2015-Jul-01 18:34N 47°31' W 122°24'0 0.0
2015-Jul-01 17:33N 47°31' W 122°24'3 2.8
2015-Jul-01 16:33N 47°31' W 122°28'0 0.0
2015-Jul-01 15:33N 47°31' W 122°28'3 2.6
2015-Jul-01 14:33N 47°31' W 122°24'0 0.2
2015-Jul-01 13:33N 47°31' W 122°24'3 2.8
2015-Jul-01 12:33N 47°31' W 122°28'0 0.0
2015-Jul-01 11:34N 47°31' W 122°28'1 1.2
2015-Jul-01 10:34N 47°31' W 122°30'1 1.2
2015-Jul-01 09:33N 47°31' W 122°28'1 1.2
2015-Jul-01 08:33N 47°31' W 122°30'2 1.8
2015-Jul-01 07:34N 47°31' W 122°27'2 2.2
2015-Jul-01 06:33N 47°31' W 122°24'3 2.8
2015-Jul-01 05:34N 47°31' W 122°28'0 0.0
2015-Jul-01 04:33N 47°31' W 122°28'0 0.2
2015-Jul-01 03:34N 47°31' W 122°28'3 2.7
2015-Jul-01 02:33N 47°31' W 122°24'3 3.7
2015-Jul-01 01:49N 47°31' W 122°28'1 4.9
2015-Jul-01 01:34N 47°31' W 122°30'1 3.6
2015-Jul-01 01:12N 47°31' W 122°28'3 4.3
2015-Jul-01 00:33N 47°31' W 122°24'1 4.7
2015-Jul-01 00:19N 47°31' W 122°25'1 1.5
2015-Jun-30 23:33N 47°31' W 122°24'0 3.8
2015-Jun-30 23:27N 47°31' W 122°24'0 0.4
2015-Jun-30 22:33N 47°31' W 122°24'1 2.3
2015-Jun-30 22:07N 47°32' W 122°25'3 5.0
2015-Jun-30 21:33N 47°31' W 122°29'012.1
2015-Jun-30 21:32N 47°31' W 122°29'1 1.2
2015-Jun-30 20:33N 47°31' W 122°28'213.2
2015-Jun-30 20:26N 47°31' W 122°25'3 3.1
2015-Jun-30 19:33N 47°31' W 122°29'1 2.3
2015-Jun-30 19:05N 47°31' W 122°28'3 5.3
2015-Jun-30 18:33N 47°31' W 122°24'2 6.6
2015-Jun-30 18:20N 47°31' W 122°26'1 1.6
2015-Jun-30 17:33N 47°31' W 122°24'115.7
2015-Jun-30 17:30N 47°31' W 122°26'2 1.7
2015-Jun-30 16:33N 47°31' W 122°28'1 4.6
2015-Jun-30 16:18N 47°31' W 122°26'1 1.5
2015-Jun-30 15:33N 47°31' W 122°28'0 0.7
2015-Jun-30 15:33N 47°31' W 122°28'3 2.6
2015-Jun-30 14:33N 47°31' W 122°24'0 9.7
2015-Jun-30 14:32N 47°31' W 122°24'0 0.4
2015-Jun-30 13:33N 47°31' W 122°24'0 9.3
2015-Jun-30 13:31N 47°31' W 122°24'2 2.5
2015-Jun-30 12:33N 47°31' W 122°28'0 0.0
2015-Jun-30 12:30N 47°31' W 122°28'0 0.0
2015-Jun-30 11:33N 47°31' W 122°28'0 4.8
2015-Jun-30 11:29N 47°31' W 122°28'1 1.4
2015-Jun-30 10:34N 47°31' W 122°30'0 1.6
2015-Jun-30 10:28N 47°31' W 122°30'1 1.4
2015-Jun-30 09:34N 47°31' W 122°28'0 1.0
2015-Jun-30 09:23N 47°31' W 122°28'1 1.5
2015-Jun-30 08:33N 47°31' W 122°30'1 7.3
2015-Jun-30 08:23N 47°31' W 122°28'0 0.1
2015-Jun-30 07:34N 47°31' W 122°28'0 7.0
2015-Jun-30 07:33N 47°31' W 122°28'3 2.8
2015-Jun-30 06:33N 47°31' W 122°24'0 0.9
2015-Jun-30 06:22N 47°31' W 122°24'411.4
2015-Jun-30 06:02N 47°31' W 122°30'2 4.1
2015-Jun-30 05:33N 47°31' W 122°27'1 0.6
2015-Jun-30 04:34N 47°31' W 122°28'0 0.3
2015-Jun-30 03:51N 47°31' W 122°27'1 2.0
2015-Jun-30 03:33N 47°31' W 122°28'011.0
2015-Jun-30 03:31N 47°31' W 122°29'3 3.2
2015-Jun-30 02:33N 47°31' W 122°24'2 3.3
2015-Jun-30 01:49N 47°31' W 122°28'1 5.3
2015-Jun-30 01:34N 47°31' W 122°30'1 3.2
2015-Jun-30 01:09N 47°31' W 122°28'3 4.7
2015-Jun-30 00:33N 47°31' W 122°24'0 1.7
2015-Jun-30 00:24N 47°31' W 122°24'0 0.3
2015-Jun-29 23:33N 47°31' W 122°24'1 5.6
2015-Jun-29 23:26N 47°31' W 122°25'1 0.8
2015-Jun-29 22:33N 47°31' W 122°24'1 1.9
2015-Jun-29 22:14N 47°32' W 122°25'2 3.6
2015-Jun-29 21:33N 47°31' W 122°28'216.8
2015-Jun-29 21:28N 47°31' W 122°26'0 0.4
2015-Jun-29 20:33N 47°31' W 122°26'015.8
2015-Jun-29 20:33N 47°31' W 122°26'1 1.3
2015-Jun-29 19:34N 47°31' W 122°28'0 4.6
2015-Jun-29 19:32N 47°31' W 122°28'3 2.5
2015-Jun-29 18:28N 47°31' W 122°24'0 2.1
2015-Jun-29 18:17N 47°31' W 122°24'0 0.5
2015-Jun-29 17:33N 47°31' W 122°24'2 9.1
2015-Jun-29 17:22N 47°31' W 122°26'1 1.4
2015-Jun-29 16:34N 47°31' W 122°28'0 2.9
2015-Jun-29 16:32N 47°31' W 122°28'0 0.1
2015-Jun-29 15:33N 47°31' W 122°28'0 0.3
2015-Jun-29 15:32N 47°31' W 122°28'2 2.6
2015-Jun-29 14:34N 47°31' W 122°24'013.5
2015-Jun-29 14:32N 47°31' W 122°25'1 0.6
2015-Jun-29 13:33N 47°31' W 122°24'0 5.1
2015-Jun-29 13:32N 47°31' W 122°24'3 2.8
2015-Jun-29 12:34N 47°31' W 122°28'0 0.0
2015-Jun-29 12:31N 47°31' W 122°28'0 0.0
2015-Jun-29 11:33N 47°31' W 122°28'0 1.1
2015-Jun-29 11:32N 47°31' W 122°28'1 1.3
2015-Jun-29 10:33N 47°31' W 122°30'0 2.9
2015-Jun-29 10:31N 47°31' W 122°30'1 1.3
2015-Jun-29 09:33N 47°31' W 122°28'0 0.0
2015-Jun-29 09:31N 47°31' W 122°28'1 1.3
2015-Jun-29 08:33N 47°31' W 122°30'110.9
2015-Jun-29 08:26N 47°31' W 122°28'0 0.5
2015-Jun-29 07:34N 47°31' W 122°27'2 2.3
2015-Jun-29 06:33N 47°31' W 122°24'3 2.8
2015-Jun-29 05:34N 47°31' W 122°28'3 2.8
2015-Jun-29 04:33N 47°31' W 122°24'3 2.8
2015-Jun-29 03:34N 47°31' W 122°28'3 2.8
2015-Jun-29 02:33N 47°31' W 122°24'0 0.0
2015-Jun-29 01:33N 47°31' W 122°24'0 0.0
2015-Jun-29 00:33N 47°31' W 122°24'3 2.8
2015-Jun-28 23:34N 47°31' W 122°28'0 0.0
2015-Jun-28 22:34N 47°31' W 122°28'3 2.7
2015-Jun-28 21:33N 47°31' W 122°24'3 2.6
2015-Jun-28 20:34N 47°31' W 122°28'0 0.3
2015-Jun-28 19:34N 47°31' W 122°28'3 2.9
2015-Jun-28 18:33N 47°31' W 122°24'3 2.8
2015-Jun-28 17:33N 47°31' W 122°28'0 0.0
2015-Jun-28 16:33N 47°31' W 122°28'2 2.4
2015-Jun-28 15:34N 47°31' W 122°25'4 3.6
2015-Jun-28 14:33N 47°31' W 122°30'4 4.1
2015-Jun-28 13:33N 47°31' W 122°24'3 2.7
2015-Jun-28 12:34N 47°31' W 122°28'0 0.2
2015-Jun-28 11:33N 47°31' W 122°28'1 1.3
2015-Jun-28 10:33N 47°31' W 122°30'1 1.3
2015-Jun-28 09:33N 47°31' W 122°28'1 1.3
2015-Jun-28 08:33N 47°31' W 122°30'2 2.0
2015-Jun-28 07:33N 47°31' W 122°27'2 2.1
2015-Jun-28 06:33N 47°31' W 122°24'1 1.3
2015-Jun-28 05:33N 47°31' W 122°26'1 1.7
2015-Jun-28 04:47N 47°31' W 122°28'0 0.6
2015-Jun-28 04:34N 47°31' W 122°28'010.3
2015-Jun-28 04:31N 47°31' W 122°27'1 1.1
2015-Jun-28 03:34N 47°31' W 122°29'1 2.3
2015-Jun-28 03:15N 47°31' W 122°30'4 5.4
2015-Jun-28 02:30N 47°31' W 122°24'1 3.3
2015-Jun-28 02:20N 47°31' W 122°25'1 0.7
2015-Jun-28 01:33N 47°31' W 122°24'0 5.7
2015-Jun-28 01:29N 47°31' W 122°24'0 0.2
2015-Jun-28 00:33N 47°31' W 122°24'115.7
2015-Jun-28 00:29N 47°31' W 122°26'1 1.3
2015-Jun-27 23:33N 47°31' W 122°28'0 2.0
2015-Jun-27 23:24N 47°31' W 122°28'0 0.4
2015-Jun-27 22:34N 47°31' W 122°28'0 0.0
2015-Jun-27 22:33N 47°31' W 122°28'1 1.2
2015-Jun-27 21:33N 47°31' W 122°26'0145.9
2015-Jun-27 21:33N 47°31' W 122°26'0 0.4
2015-Jun-27 20:33N 47°31' W 122°26'016.4
2015-Jun-27 20:33N 47°31' W 122°26'3 2.9
2015-Jun-27 19:33N 47°31' W 122°30'1 6.2
2015-Jun-27 19:21N 47°31' W 122°28'3 3.3
2015-Jun-27 18:34N 47°31' W 122°24'3 2.6
2015-Jun-27 17:33N 47°31' W 122°28'0 0.0
2015-Jun-27 16:34N 47°31' W 122°28'2 2.1
2015-Jun-27 15:33N 47°31' W 122°25'3 3.3
2015-Jun-27 14:33N 47°31' W 122°30'4 3.8
2015-Jun-27 13:33N 47°31' W 122°24'3 2.5
2015-Jun-27 12:34N 47°31' W 122°28'0 0.0
2015-Jun-27 11:33N 47°31' W 122°28'1 1.3
2015-Jun-27 10:34N 47°31' W 122°30'1 1.3
2015-Jun-27 09:33N 47°31' W 122°28'0 0.0
2015-Jun-27 08:33N 47°31' W 122°28'0 0.2
2015-Jun-27 07:34N 47°31' W 122°28'1 1.0
2015-Jun-27 06:33N 47°31' W 122°29'4 3.8
2015-Jun-27 05:33N 47°31' W 122°24'3 2.8
2015-Jun-27 04:34N 47°31' W 122°28'0 0.0
2015-Jun-27 03:33N 47°31' W 122°28'1 1.3
2015-Jun-27 02:33N 47°31' W 122°30'4 4.0
2015-Jun-27 01:34N 47°31' W 122°24'3 2.8
2015-Jun-27 00:33N 47°31' W 122°28'0 0.1
2015-Jun-26 23:34N 47°31' W 122°28'2 2.1
2015-Jun-26 22:35N 47°31' W 122°25'016.3
2015-Jun-26 22:33N 47°31' W 122°25'116.8
2015-Jun-26 22:30N 47°31' W 122°27'2 2.2
2015-Jun-26 21:34N 47°31' W 122°24'110.2
2015-Jun-26 21:29N 47°31' W 122°25'2 2.2
2015-Jun-26 20:34N 47°31' W 122°28'0 0.1
2015-Jun-26 20:29N 47°31' W 122°28'2 1.9
2015-Jun-26 19:33N 47°31' W 122°25'116.7
2015-Jun-26 19:29N 47°31' W 122°27'0 0.2
2015-Jun-26 18:34N 47°31' W 122°27'0 4.9
2015-Jun-26 18:28N 47°31' W 122°28'0 0.4
2015-Jun-26 17:33N 47°31' W 122°27'216.2
2015-Jun-26 17:28N 47°31' W 122°25'2 2.1
2015-Jun-26 16:33N 47°31' W 122°28'1 9.2
2015-Jun-26 16:27N 47°31' W 122°29'4 4.0
2015-Jun-26 15:33N 47°31' W 122°24'0 3.4
2015-Jun-26 15:26N 47°31' W 122°24'3 3.0
2015-Jun-26 14:33N 47°31' W 122°28'013.7
2015-Jun-26 14:32N 47°31' W 122°28'0 0.2
2015-Jun-26 13:33N 47°31' W 122°28'0 0.1
2015-Jun-26 13:31N 47°31' W 122°28'0 0.0
2015-Jun-26 12:33N 47°31' W 122°28'0 0.0
2015-Jun-26 12:24N 47°31' W 122°28'0 0.0
2015-Jun-26 11:33N 47°31' W 122°28'0 0.0
2015-Jun-26 11:33N 47°31' W 122°28'0 0.0
2015-Jun-26 10:33N 47°31' W 122°28'0 0.0
2015-Jun-26 10:26N 47°31' W 122°28'0 0.0
2015-Jun-26 09:33N 47°31' W 122°28'0 0.0
2015-Jun-26 09:31N 47°31' W 122°28'0 0.0
2015-Jun-26 08:33N 47°31' W 122°28'0 0.0
2015-Jun-26 08:31N 47°31' W 122°28'0 0.0
2015-Jun-26 07:33N 47°31' W 122°28'0 0.0
2015-Jun-26 07:30N 47°31' W 122°28'0 0.0
2015-Jun-26 06:33N 47°31' W 122°28'0 0.0
2015-Jun-26 06:03N 47°31' W 122°28'0 0.0
2015-Jun-26 05:33N 47°31' W 122°28'1 0.6
2015-Jun-26 04:33N 47°31' W 122°29'114.6
2015-Jun-26 04:31N 47°31' W 122°28'0 0.1
2015-Jun-26 03:34N 47°31' W 122°28'0 7.6
2015-Jun-26 03:31N 47°31' W 122°27'0 0.3
2015-Jun-26 02:34N 47°31' W 122°28'0 3.7
2015-Jun-26 02:31N 47°31' W 122°28'3 2.8
2015-Jun-26 01:33N 47°31' W 122°24'1 2.8
2015-Jun-26 01:14N 47°31' W 122°25'2 2.9
2015-Jun-26 00:33N 47°31' W 122°28'0 0.1
2015-Jun-26 00:29N 47°31' W 122°28'0 0.0
2015-Jun-25 23:33N 47°31' W 122°28'0 1.6
2015-Jun-25 23:18N 47°31' W 122°27'1 1.0
2015-Jun-25 22:33N 47°31' W 122°26'017.3
2015-Jun-25 22:32N 47°31' W 122°27'1 0.9
2015-Jun-25 21:33N 47°31' W 122°26'017.4
2015-Jun-25 21:32N 47°31' W 122°26'1 1.2
2015-Jun-25 20:34N 47°31' W 122°28'0 0.1
2015-Jun-25 20:30N 47°31' W 122°28'2 2.2
2015-Jun-25 19:34N 47°31' W 122°25'019.0
2015-Jun-25 19:33N 47°31' W 122°25'2 1.6
2015-Jun-25 18:33N 47°31' W 122°27'0 0.0
2015-Jun-25 18:33N 47°31' W 122°27'0 0.3
2015-Jun-25 17:34N 47°31' W 122°28'011.3
2015-Jun-25 17:33N 47°31' W 122°28'0 0.2
2015-Jun-25 16:34N 47°31' W 122°28'0 3.1
2015-Jun-25 16:33N 47°31' W 122°28'3 2.8
2015-Jun-25 15:33N 47°31' W 122°24'0 2.8
2015-Jun-25 15:28N 47°31' W 122°24'3 2.8
2015-Jun-25 14:34N 47°31' W 122°28'0 8.2
2015-Jun-25 14:32N 47°31' W 122°28'0 0.0
2015-Jun-25 13:33N 47°31' W 122°28'0 0.0
2015-Jun-25 13:31N 47°31' W 122°28'0 0.0
2015-Jun-25 12:33N 47°31' W 122°28'0 0.0
2015-Jun-25 12:30N 47°31' W 122°28'0 0.0
2015-Jun-25 11:33N 47°31' W 122°28'0 0.0
2015-Jun-25 11:30N 47°31' W 122°28'0 0.0
2015-Jun-25 10:33N 47°31' W 122°28'0 0.0
2015-Jun-25 10:30N 47°31' W 122°28'0 0.0
2015-Jun-25 09:33N 47°31' W 122°28'0 0.0
2015-Jun-25 09:29N 47°31' W 122°28'0 0.0
2015-Jun-25 08:33N 47°31' W 122°28'0 0.0
2015-Jun-25 08:29N 47°31' W 122°28'  

Dump ship's entire track history